sensor_id;sensor_type;location;lat;lon;timestamp;P1;durP1;ratioP1;P2;durP2;ratioP2
9508;SDS011;4792;50.088;8.122;2023-10-19T00:00:32;19.10;;;15.07;;
9508;SDS011;4792;50.088;8.122;2023-10-19T00:03:02;19.27;;;14.77;;
9508;SDS011;4792;50.088;8.122;2023-10-19T00:05:31;17.97;;;14.90;;
9508;SDS011;4792;50.088;8.122;2023-10-19T00:08:00;23.00;;;15.17;;
9508;SDS011;4792;50.088;8.122;2023-10-19T00:10:32;18.93;;;15.37;;
9508;SDS011;4792;50.088;8.122;2023-10-19T00:13:01;19.10;;;14.83;;
9508;SDS011;4792;50.088;8.122;2023-10-19T00:15:31;18.77;;;14.77;;
9508;SDS011;4792;50.088;8.122;2023-10-19T00:18:00;21.40;;;15.47;;
9508;SDS011;4792;50.088;8.122;2023-10-19T00:20:41;17.97;;;14.00;;
9508;SDS011;4792;50.088;8.122;2023-10-19T00:23:17;21.33;;;16.37;;
9508;SDS011;4792;50.088;8.122;2023-10-19T00:25:50;26.00;;;17.03;;
9508;SDS011;4792;50.088;8.122;2023-10-19T00:28:17;30.70;;;18.30;;
9508;SDS011;4792;50.088;8.122;2023-10-19T00:30:45;24.43;;;17.53;;
9508;SDS011;4792;50.088;8.122;2023-10-19T00:33:15;24.13;;;16.93;;
9508;SDS011;4792;50.088;8.122;2023-10-19T00:35:45;23.17;;;17.77;;
9508;SDS011;4792;50.088;8.122;2023-10-19T00:38:26;63.57;;;18.93;;
9508;SDS011;4792;50.088;8.122;2023-10-19T00:41:07;239.80;;;27.03;;
9508;SDS011;4792;50.088;8.122;2023-10-19T00:43:40;47.13;;;18.87;;
9508;SDS011;4792;50.088;8.122;2023-10-19T00:46:12;81.10;;;19.40;;
9508;SDS011;4792;50.088;8.122;2023-10-19T00:48:52;41.30;;;18.57;;
9508;SDS011;4792;50.088;8.122;2023-10-19T00:51:26;25.27;;;16.83;;
9508;SDS011;4792;50.088;8.122;2023-10-19T00:54:05;104.70;;;21.23;;
9508;SDS011;4792;50.088;8.122;2023-10-19T00:56:37;79.33;;;18.87;;
9508;SDS011;4792;50.088;8.122;2023-10-19T00:59:07;37.27;;;17.10;;
9508;SDS011;4792;50.088;8.122;2023-10-19T01:01:40;240.03;;;26.10;;
9508;SDS011;4792;50.088;8.122;2023-10-19T01:04:11;90.47;;;19.70;;
9508;SDS011;4792;50.088;8.122;2023-10-19T01:06:42;152.77;;;21.37;;
9508;SDS011;4792;50.088;8.122;2023-10-19T01:09:10;72.10;;;17.20;;
9508;SDS011;4792;50.088;8.122;2023-10-19T01:11:41;44.23;;;15.73;;
9508;SDS011;4792;50.088;8.122;2023-10-19T01:14:18;42.70;;;15.97;;
9508;SDS011;4792;50.088;8.122;2023-10-19T01:16:46;39.40;;;14.73;;
9508;SDS011;4792;50.088;8.122;2023-10-19T01:19:15;80.03;;;17.47;;
9508;SDS011;4792;50.088;8.122;2023-10-19T01:21:46;91.77;;;17.80;;
9508;SDS011;4792;50.088;8.122;2023-10-19T01:24:19;27.13;;;14.27;;
9508;SDS011;4792;50.088;8.122;2023-10-19T01:26:54;27.13;;;14.67;;
9508;SDS011;4792;50.088;8.122;2023-10-19T01:29:23;27.60;;;14.93;;
9508;SDS011;4792;50.088;8.122;2023-10-19T01:31:53;143.67;;;19.90;;
9508;SDS011;4792;50.088;8.122;2023-10-19T01:34:32;71.50;;;19.57;;
9508;SDS011;4792;50.088;8.122;2023-10-19T01:37:00;119.90;;;21.67;;
9508;SDS011;4792;50.088;8.122;2023-10-19T01:39:32;21.50;;;16.47;;
9508;SDS011;4792;50.088;8.122;2023-10-19T01:42:01;204.47;;;26.23;;
9508;SDS011;4792;50.088;8.122;2023-10-19T01:44:31;99.30;;;23.07;;
9508;SDS011;4792;50.088;8.122;2023-10-19T01:47:02;141.37;;;22.67;;
9508;SDS011;4792;50.088;8.122;2023-10-19T01:49:32;131.33;;;23.63;;
9508;SDS011;4792;50.088;8.122;2023-10-19T01:52:00;30.50;;;17.07;;
9508;SDS011;4792;50.088;8.122;2023-10-19T01:54:27;58.53;;;19.50;;
9508;SDS011;4792;50.088;8.122;2023-10-19T01:56:56;187.80;;;24.17;;
9508;SDS011;4792;50.088;8.122;2023-10-19T01:59:23;245.27;;;27.20;;
9508;SDS011;4792;50.088;8.122;2023-10-19T02:01:53;72.60;;;19.93;;
9508;SDS011;4792;50.088;8.122;2023-10-19T02:04:21;123.27;;;23.87;;
9508;SDS011;4792;50.088;8.122;2023-10-19T02:06:49;159.47;;;22.43;;
9508;SDS011;4792;50.088;8.122;2023-10-19T02:09:18;54.20;;;18.03;;
9508;SDS011;4792;50.088;8.122;2023-10-19T02:11:50;274.87;;;30.37;;
9508;SDS011;4792;50.088;8.122;2023-10-19T02:14:21;60.03;;;17.63;;
9508;SDS011;4792;50.088;8.122;2023-10-19T02:16:50;184.90;;;25.50;;
9508;SDS011;4792;50.088;8.122;2023-10-19T02:19:18;153.20;;;22.23;;
9508;SDS011;4792;50.088;8.122;2023-10-19T02:21:47;48.13;;;17.90;;
9508;SDS011;4792;50.088;8.122;2023-10-19T02:24:14;181.13;;;22.33;;
9508;SDS011;4792;50.088;8.122;2023-10-19T02:26:42;57.27;;;18.73;;
9508;SDS011;4792;50.088;8.122;2023-10-19T02:29:09;45.20;;;17.00;;
9508;SDS011;4792;50.088;8.122;2023-10-19T02:31:39;192.00;;;26.37;;
9508;SDS011;4792;50.088;8.122;2023-10-19T02:34:07;183.50;;;22.60;;
9508;SDS011;4792;50.088;8.122;2023-10-19T02:36:36;41.23;;;17.63;;
9508;SDS011;4792;50.088;8.122;2023-10-19T02:39:04;117.07;;;21.53;;
9508;SDS011;4792;50.088;8.122;2023-10-19T02:41:34;212.47;;;24.87;;
9508;SDS011;4792;50.088;8.122;2023-10-19T02:44:03;297.40;;;30.37;;
9508;SDS011;4792;50.088;8.122;2023-10-19T02:46:34;192.57;;;23.73;;
9508;SDS011;4792;50.088;8.122;2023-10-19T02:49:06;118.87;;;20.67;;
9508;SDS011;4792;50.088;8.122;2023-10-19T02:51:37;217.57;;;24.23;;
9508;SDS011;4792;50.088;8.122;2023-10-19T02:54:05;117.63;;;21.50;;
9508;SDS011;4792;50.088;8.122;2023-10-19T02:56:34;110.83;;;20.70;;
9508;SDS011;4792;50.088;8.122;2023-10-19T02:59:02;63.40;;;17.77;;
9508;SDS011;4792;50.088;8.122;2023-10-19T03:01:30;169.83;;;22.80;;
9508;SDS011;4792;50.088;8.122;2023-10-19T03:03:59;167.87;;;22.27;;
9508;SDS011;4792;50.088;8.122;2023-10-19T03:06:28;241.63;;;25.17;;
9508;SDS011;4792;50.088;8.122;2023-10-19T03:08:58;92.07;;;19.87;;
9508;SDS011;4792;50.088;8.122;2023-10-19T03:11:30;23.87;;;16.93;;
9508;SDS011;4792;50.088;8.122;2023-10-19T03:13:58;24.53;;;17.87;;
9508;SDS011;4792;50.088;8.122;2023-10-19T03:16:25;54.80;;;20.30;;
9508;SDS011;4792;50.088;8.122;2023-10-19T03:18:56;183.93;;;23.67;;
9508;SDS011;4792;50.088;8.122;2023-10-19T03:21:23;87.83;;;19.47;;
9508;SDS011;4792;50.088;8.122;2023-10-19T03:23:54;175.87;;;21.67;;
9508;SDS011;4792;50.088;8.122;2023-10-19T03:26:23;128.00;;;20.63;;
9508;SDS011;4792;50.088;8.122;2023-10-19T03:28:54;164.87;;;20.83;;
9508;SDS011;4792;50.088;8.122;2023-10-19T03:31:29;98.57;;;18.30;;
9508;SDS011;4792;50.088;8.122;2023-10-19T03:33:59;49.57;;;17.87;;
9508;SDS011;4792;50.088;8.122;2023-10-19T03:36:31;87.50;;;19.93;;
9508;SDS011;4792;50.088;8.122;2023-10-19T03:39:00;42.70;;;20.07;;
9508;SDS011;4792;50.088;8.122;2023-10-19T03:41:37;268.73;;;27.77;;
9508;SDS011;4792;50.088;8.122;2023-10-19T03:44:08;32.87;;;17.93;;
9508;SDS011;4792;50.088;8.122;2023-10-19T03:46:45;84.03;;;18.77;;
9508;SDS011;4792;50.088;8.122;2023-10-19T03:49:22;63.17;;;18.40;;
9508;SDS011;4792;50.088;8.122;2023-10-19T03:51:52;65.77;;;18.27;;
9508;SDS011;4792;50.088;8.122;2023-10-19T03:54:28;228.57;;;25.33;;
9508;SDS011;4792;50.088;8.122;2023-10-19T03:56:59;82.57;;;17.40;;
9508;SDS011;4792;50.088;8.122;2023-10-19T03:59:32;140.07;;;21.03;;
9508;SDS011;4792;50.088;8.122;2023-10-19T04:02:00;96.20;;;18.73;;
9508;SDS011;4792;50.088;8.122;2023-10-19T04:04:33;148.87;;;22.67;;
9508;SDS011;4792;50.088;8.122;2023-10-19T04:07:01;149.07;;;22.67;;
9508;SDS011;4792;50.088;8.122;2023-10-19T04:09:38;84.47;;;19.50;;
9508;SDS011;4792;50.088;8.122;2023-10-19T04:12:23;40.07;;;18.33;;
9508;SDS011;4792;50.088;8.122;2023-10-19T04:14:51;56.97;;;19.07;;
9508;SDS011;4792;50.088;8.122;2023-10-19T04:17:19;111.93;;;20.60;;
9508;SDS011;4792;50.088;8.122;2023-10-19T04:19:49;38.93;;;18.67;;
9508;SDS011;4792;50.088;8.122;2023-10-19T04:22:18;90.93;;;20.93;;
9508;SDS011;4792;50.088;8.122;2023-10-19T04:24:51;29.43;;;17.03;;
9508;SDS011;4792;50.088;8.122;2023-10-19T04:27:19;43.80;;;19.20;;
9508;SDS011;4792;50.088;8.122;2023-10-19T04:29:49;72.20;;;20.57;;
9508;SDS011;4792;50.088;8.122;2023-10-19T04:32:17;48.80;;;19.37;;
9508;SDS011;4792;50.088;8.122;2023-10-19T04:34:52;27.33;;;17.50;;
9508;SDS011;4792;50.088;8.122;2023-10-19T04:37:20;40.93;;;19.67;;
9508;SDS011;4792;50.088;8.122;2023-10-19T04:39:51;30.50;;;17.67;;
9508;SDS011;4792;50.088;8.122;2023-10-19T04:42:19;29.73;;;17.67;;
9508;SDS011;4792;50.088;8.122;2023-10-19T04:44:49;30.50;;;17.90;;
9508;SDS011;4792;50.088;8.122;2023-10-19T04:47:16;374.53;;;31.13;;
9508;SDS011;4792;50.088;8.122;2023-10-19T04:49:44;29.50;;;16.57;;
9508;SDS011;4792;50.088;8.122;2023-10-19T04:52:12;26.50;;;15.77;;
9508;SDS011;4792;50.088;8.122;2023-10-19T04:54:40;35.70;;;17.83;;
9508;SDS011;4792;50.088;8.122;2023-10-19T04:57:09;60.23;;;19.00;;
9508;SDS011;4792;50.088;8.122;2023-10-19T04:59:38;24.90;;;15.53;;
9508;SDS011;4792;50.088;8.122;2023-10-19T05:02:05;37.40;;;17.23;;
9508;SDS011;4792;50.088;8.122;2023-10-19T05:04:33;34.90;;;17.50;;
9508;SDS011;4792;50.088;8.122;2023-10-19T05:07:02;61.23;;;17.93;;
9508;SDS011;4792;50.088;8.122;2023-10-19T05:09:31;49.80;;;17.30;;
9508;SDS011;4792;50.088;8.122;2023-10-19T05:11:59;98.87;;;20.03;;
9508;SDS011;4792;50.088;8.122;2023-10-19T05:14:28;50.57;;;17.97;;
9508;SDS011;4792;50.088;8.122;2023-10-19T05:16:57;45.07;;;16.47;;
9508;SDS011;4792;50.088;8.122;2023-10-19T05:19:25;25.83;;;15.93;;
9508;SDS011;4792;50.088;8.122;2023-10-19T05:21:52;51.13;;;17.73;;
9508;SDS011;4792;50.088;8.122;2023-10-19T05:24:20;45.43;;;17.93;;
9508;SDS011;4792;50.088;8.122;2023-10-19T05:26:48;60.03;;;19.43;;
9508;SDS011;4792;50.088;8.122;2023-10-19T05:29:15;32.47;;;17.13;;
9508;SDS011;4792;50.088;8.122;2023-10-19T05:31:45;41.03;;;17.13;;
9508;SDS011;4792;50.088;8.122;2023-10-19T05:34:12;37.77;;;17.13;;
9508;SDS011;4792;50.088;8.122;2023-10-19T05:36:42;35.70;;;16.07;;
9508;SDS011;4792;50.088;8.122;2023-10-19T05:39:12;66.13;;;20.03;;
9508;SDS011;4792;50.088;8.122;2023-10-19T05:41:40;51.43;;;18.53;;
9508;SDS011;4792;50.088;8.122;2023-10-19T05:44:07;76.50;;;19.10;;
9508;SDS011;4792;50.088;8.122;2023-10-19T05:46:35;30.80;;;15.30;;
9508;SDS011;4792;50.088;8.122;2023-10-19T05:49:05;26.30;;;15.30;;
9508;SDS011;4792;50.088;8.122;2023-10-19T05:51:34;46.40;;;15.17;;
9508;SDS011;4792;50.088;8.122;2023-10-19T05:54:01;25.03;;;15.73;;
9508;SDS011;4792;50.088;8.122;2023-10-19T05:56:30;74.00;;;17.13;;
9508;SDS011;4792;50.088;8.122;2023-10-19T05:59:00;32.30;;;15.63;;
9508;SDS011;4792;50.088;8.122;2023-10-19T06:01:28;69.60;;;17.07;;
9508;SDS011;4792;50.088;8.122;2023-10-19T06:03:56;104.17;;;19.23;;
9508;SDS011;4792;50.088;8.122;2023-10-19T06:06:25;89.07;;;19.80;;
9508;SDS011;4792;50.088;8.122;2023-10-19T06:08:53;77.33;;;21.47;;
9508;SDS011;4792;50.088;8.122;2023-10-19T06:11:20;38.43;;;18.00;;
9508;SDS011;4792;50.088;8.122;2023-10-19T06:13:49;36.63;;;18.53;;
9508;SDS011;4792;50.088;8.122;2023-10-19T06:16:16;52.10;;;20.73;;
9508;SDS011;4792;50.088;8.122;2023-10-19T06:18:44;37.37;;;18.57;;
9508;SDS011;4792;50.088;8.122;2023-10-19T06:21:12;34.43;;;20.30;;
9508;SDS011;4792;50.088;8.122;2023-10-19T06:23:46;32.13;;;19.30;;
9508;SDS011;4792;50.088;8.122;2023-10-19T06:26:14;27.67;;;18.30;;
9508;SDS011;4792;50.088;8.122;2023-10-19T06:28:42;27.50;;;17.60;;
9508;SDS011;4792;50.088;8.122;2023-10-19T06:31:10;29.67;;;18.20;;
9508;SDS011;4792;50.088;8.122;2023-10-19T06:33:37;32.93;;;20.03;;
9508;SDS011;4792;50.088;8.122;2023-10-19T06:36:08;30.53;;;18.70;;
9508;SDS011;4792;50.088;8.122;2023-10-19T06:38:35;45.30;;;19.87;;
9508;SDS011;4792;50.088;8.122;2023-10-19T06:41:11;35.63;;;19.63;;
9508;SDS011;4792;50.088;8.122;2023-10-19T06:43:39;118.57;;;22.87;;
9508;SDS011;4792;50.088;8.122;2023-10-19T06:46:07;82.47;;;22.07;;
9508;SDS011;4792;50.088;8.122;2023-10-19T06:48:38;43.00;;;20.10;;
9508;SDS011;4792;50.088;8.122;2023-10-19T06:51:06;39.03;;;19.67;;
9508;SDS011;4792;50.088;8.122;2023-10-19T06:53:34;73.57;;;21.53;;
9508;SDS011;4792;50.088;8.122;2023-10-19T06:56:02;88.90;;;22.50;;
9508;SDS011;4792;50.088;8.122;2023-10-19T06:58:32;60.60;;;20.67;;
9508;SDS011;4792;50.088;8.122;2023-10-19T07:01:00;29.93;;;18.87;;
9508;SDS011;4792;50.088;8.122;2023-10-19T07:03:32;45.37;;;19.60;;
9508;SDS011;4792;50.088;8.122;2023-10-19T07:05:59;34.13;;;19.20;;
9508;SDS011;4792;50.088;8.122;2023-10-19T07:08:35;33.43;;;20.63;;
9508;SDS011;4792;50.088;8.122;2023-10-19T07:11:02;49.47;;;21.50;;
9508;SDS011;4792;50.088;8.122;2023-10-19T07:13:32;31.77;;;20.67;;
9508;SDS011;4792;50.088;8.122;2023-10-19T07:16:00;32.00;;;21.43;;
9508;SDS011;4792;50.088;8.122;2023-10-19T07:18:29;55.17;;;23.43;;
9508;SDS011;4792;50.088;8.122;2023-10-19T07:20:57;40.93;;;22.20;;
9508;SDS011;4792;50.088;8.122;2023-10-19T07:23:30;33.30;;;20.87;;
9508;SDS011;4792;50.088;8.122;2023-10-19T07:25:58;30.77;;;19.27;;
9508;SDS011;4792;50.088;8.122;2023-10-19T07:28:27;47.07;;;22.17;;
9508;SDS011;4792;50.088;8.122;2023-10-19T07:30:56;32.67;;;19.97;;
9508;SDS011;4792;50.088;8.122;2023-10-19T07:33:26;33.70;;;19.73;;
9508;SDS011;4792;50.088;8.122;2023-10-19T07:35:54;24.47;;;17.80;;
9508;SDS011;4792;50.088;8.122;2023-10-19T07:38:22;28.60;;;17.50;;
9508;SDS011;4792;50.088;8.122;2023-10-19T07:40:50;26.03;;;18.13;;
9508;SDS011;4792;50.088;8.122;2023-10-19T07:43:19;28.57;;;20.47;;
9508;SDS011;4792;50.088;8.122;2023-10-19T07:45:48;371.07;;;55.33;;
9508;SDS011;4792;50.088;8.122;2023-10-19T07:48:18;102.90;;;58.20;;
9508;SDS011;4792;50.088;8.122;2023-10-19T07:50:45;299.10;;;31.67;;
9508;SDS011;4792;50.088;8.122;2023-10-19T07:53:13;56.27;;;22.93;;
9508;SDS011;4792;50.088;8.122;2023-10-19T07:55:41;29.47;;;21.23;;
9508;SDS011;4792;50.088;8.122;2023-10-19T07:58:09;28.97;;;20.37;;
9508;SDS011;4792;50.088;8.122;2023-10-19T08:00:38;27.63;;;19.17;;
9508;SDS011;4792;50.088;8.122;2023-10-19T08:03:08;25.47;;;19.10;;
9508;SDS011;4792;50.088;8.122;2023-10-19T08:05:38;31.73;;;20.33;;
9508;SDS011;4792;50.088;8.122;2023-10-19T08:08:05;25.40;;;18.77;;
9508;SDS011;4792;50.088;8.122;2023-10-19T08:10:33;23.50;;;19.37;;
9508;SDS011;4792;50.088;8.122;2023-10-19T08:13:01;34.40;;;19.17;;
9508;SDS011;4792;50.088;8.122;2023-10-19T08:15:29;21.57;;;17.27;;
9508;SDS011;4792;50.088;8.122;2023-10-19T08:17:57;21.07;;;15.50;;
9508;SDS011;4792;50.088;8.122;2023-10-19T08:20:25;25.23;;;16.40;;
9508;SDS011;4792;50.088;8.122;2023-10-19T08:22:59;22.40;;;16.27;;
9508;SDS011;4792;50.088;8.122;2023-10-19T08:25:29;17.33;;;15.20;;
9508;SDS011;4792;50.088;8.122;2023-10-19T08:28:00;19.43;;;17.00;;
9508;SDS011;4792;50.088;8.122;2023-10-19T08:30:28;18.23;;;14.90;;
9508;SDS011;4792;50.088;8.122;2023-10-19T08:32:55;20.27;;;15.90;;
9508;SDS011;4792;50.088;8.122;2023-10-19T08:35:24;17.50;;;14.13;;
9508;SDS011;4792;50.088;8.122;2023-10-19T08:37:53;69.13;;;21.10;;
9508;SDS011;4792;50.088;8.122;2023-10-19T08:40:24;77.53;;;18.40;;
9508;SDS011;4792;50.088;8.122;2023-10-19T08:42:53;20.97;;;17.63;;
9508;SDS011;4792;50.088;8.122;2023-10-19T08:45:21;20.60;;;16.30;;
9508;SDS011;4792;50.088;8.122;2023-10-19T08:47:53;16.73;;;14.30;;
9508;SDS011;4792;50.088;8.122;2023-10-19T08:50:23;18.07;;;15.03;;
9508;SDS011;4792;50.088;8.122;2023-10-19T08:52:52;15.37;;;12.93;;
9508;SDS011;4792;50.088;8.122;2023-10-19T08:55:20;14.33;;;12.10;;
9508;SDS011;4792;50.088;8.122;2023-10-19T08:58:09;18.10;;;13.43;;
9508;SDS011;4792;50.088;8.122;2023-10-19T09:00:43;39.63;;;28.13;;
9508;SDS011;4792;50.088;8.122;2023-10-19T09:03:14;21.10;;;14.93;;
9508;SDS011;4792;50.088;8.122;2023-10-19T09:05:44;20.23;;;14.60;;
9508;SDS011;4792;50.088;8.122;2023-10-19T09:08:13;20.93;;;15.10;;
9508;SDS011;4792;50.088;8.122;2023-10-19T09:10:43;24.97;;;15.90;;
9508;SDS011;4792;50.088;8.122;2023-10-19T09:13:14;26.67;;;20.43;;
9508;SDS011;4792;50.088;8.122;2023-10-19T09:15:46;15.90;;;12.80;;
9508;SDS011;4792;50.088;8.122;2023-10-19T09:18:16;17.70;;;13.50;;
9508;SDS011;4792;50.088;8.122;2023-10-19T09:20:45;17.50;;;13.67;;
9508;SDS011;4792;50.088;8.122;2023-10-19T09:23:29;32.67;;;15.70;;
9508;SDS011;4792;50.088;8.122;2023-10-19T09:25:57;17.67;;;14.90;;
9508;SDS011;4792;50.088;8.122;2023-10-19T09:28:28;61.47;;;18.20;;
9508;SDS011;4792;50.088;8.122;2023-10-19T09:30:55;40.70;;;19.23;;
9508;SDS011;4792;50.088;8.122;2023-10-19T09:33:23;38.57;;;19.27;;
9508;SDS011;4792;50.088;8.122;2023-10-19T09:35:51;26.77;;;19.43;;
9508;SDS011;4792;50.088;8.122;2023-10-19T09:38:22;27.43;;;19.27;;
9508;SDS011;4792;50.088;8.122;2023-10-19T09:40:52;25.10;;;19.17;;
9508;SDS011;4792;50.088;8.122;2023-10-19T09:43:22;22.97;;;17.67;;
9508;SDS011;4792;50.088;8.122;2023-10-19T09:45:56;29.20;;;17.87;;
9508;SDS011;4792;50.088;8.122;2023-10-19T09:48:26;46.43;;;17.73;;
9508;SDS011;4792;50.088;8.122;2023-10-19T09:50:55;34.97;;;18.17;;
9508;SDS011;4792;50.088;8.122;2023-10-19T09:53:25;23.47;;;16.93;;
9508;SDS011;4792;50.088;8.122;2023-10-19T09:55:55;23.47;;;15.77;;
9508;SDS011;4792;50.088;8.122;2023-10-19T09:58:26;35.83;;;18.70;;
9508;SDS011;4792;50.088;8.122;2023-10-19T10:00:57;66.47;;;19.60;;
9508;SDS011;4792;50.088;8.122;2023-10-19T10:03:44;34.53;;;20.33;;
9508;SDS011;4792;50.088;8.122;2023-10-19T10:06:13;45.90;;;18.63;;
9508;SDS011;4792;50.088;8.122;2023-10-19T10:08:42;44.17;;;20.20;;
9508;SDS011;4792;50.088;8.122;2023-10-19T10:11:14;33.20;;;20.30;;
9508;SDS011;4792;50.088;8.122;2023-10-19T10:13:44;43.67;;;20.83;;
9508;SDS011;4792;50.088;8.122;2023-10-19T10:16:14;98.40;;;23.47;;
9508;SDS011;4792;50.088;8.122;2023-10-19T10:18:42;48.70;;;20.67;;
9508;SDS011;4792;50.088;8.122;2023-10-19T10:21:12;31.17;;;20.00;;
9508;SDS011;4792;50.088;8.122;2023-10-19T10:23:42;73.30;;;22.33;;
9508;SDS011;4792;50.088;8.122;2023-10-19T10:26:11;29.50;;;20.13;;
9508;SDS011;4792;50.088;8.122;2023-10-19T10:28:40;46.73;;;22.40;;
9508;SDS011;4792;50.088;8.122;2023-10-19T10:31:10;97.23;;;24.80;;
9508;SDS011;4792;50.088;8.122;2023-10-19T10:33:45;105.73;;;26.40;;
9508;SDS011;4792;50.088;8.122;2023-10-19T10:36:14;33.80;;;23.13;;
9508;SDS011;4792;50.088;8.122;2023-10-19T10:38:43;36.23;;;21.93;;
9508;SDS011;4792;50.088;8.122;2023-10-19T10:41:11;43.43;;;23.17;;
9508;SDS011;4792;50.088;8.122;2023-10-19T10:43:49;59.27;;;22.33;;
9508;SDS011;4792;50.088;8.122;2023-10-19T10:46:19;78.50;;;25.40;;
9508;SDS011;4792;50.088;8.122;2023-10-19T10:48:49;42.20;;;23.80;;
9508;SDS011;4792;50.088;8.122;2023-10-19T10:51:18;33.73;;;23.13;;
9508;SDS011;4792;50.088;8.122;2023-10-19T10:53:47;38.80;;;22.70;;
9508;SDS011;4792;50.088;8.122;2023-10-19T10:56:16;54.17;;;23.03;;
9508;SDS011;4792;50.088;8.122;2023-10-19T10:58:44;30.43;;;21.23;;
9508;SDS011;4792;50.088;8.122;2023-10-19T11:01:12;33.00;;;20.70;;
9508;SDS011;4792;50.088;8.122;2023-10-19T11:03:41;40.20;;;20.57;;
9508;SDS011;4792;50.088;8.122;2023-10-19T11:06:10;28.37;;;20.43;;
9508;SDS011;4792;50.088;8.122;2023-10-19T11:08:39;30.33;;;20.13;;
9508;SDS011;4792;50.088;8.122;2023-10-19T11:11:08;48.23;;;21.37;;
9508;SDS011;4792;50.088;8.122;2023-10-19T11:13:38;43.17;;;21.77;;
9508;SDS011;4792;50.088;8.122;2023-10-19T11:16:06;48.33;;;22.37;;
9508;SDS011;4792;50.088;8.122;2023-10-19T11:18:36;59.53;;;23.63;;
9508;SDS011;4792;50.088;8.122;2023-10-19T11:21:07;33.87;;;23.50;;
9508;SDS011;4792;50.088;8.122;2023-10-19T11:23:38;29.60;;;21.63;;
9508;SDS011;4792;50.088;8.122;2023-10-19T11:26:07;35.43;;;22.70;;
9508;SDS011;4792;50.088;8.122;2023-10-19T11:28:36;34.07;;;22.03;;
9508;SDS011;4792;50.088;8.122;2023-10-19T11:31:13;30.03;;;20.53;;
9508;SDS011;4792;50.088;8.122;2023-10-19T11:33:41;36.83;;;22.40;;
9508;SDS011;4792;50.088;8.122;2023-10-19T11:36:10;34.60;;;21.57;;
9508;SDS011;4792;50.088;8.122;2023-10-19T11:38:41;24.10;;;18.30;;
9508;SDS011;4792;50.088;8.122;2023-10-19T11:41:09;26.40;;;18.77;;
9508;SDS011;4792;50.088;8.122;2023-10-19T11:43:39;31.43;;;20.30;;
9508;SDS011;4792;50.088;8.122;2023-10-19T11:46:07;28.33;;;20.97;;
9508;SDS011;4792;50.088;8.122;2023-10-19T11:48:35;30.80;;;20.53;;
9508;SDS011;4792;50.088;8.122;2023-10-19T11:51:03;23.13;;;18.33;;
9508;SDS011;4792;50.088;8.122;2023-10-19T11:53:31;26.53;;;18.57;;
9508;SDS011;4792;50.088;8.122;2023-10-19T11:56:05;31.40;;;19.23;;
9508;SDS011;4792;50.088;8.122;2023-10-19T11:58:40;25.70;;;18.73;;
9508;SDS011;4792;50.088;8.122;2023-10-19T12:01:09;29.33;;;19.63;;
9508;SDS011;4792;50.088;8.122;2023-10-19T12:03:38;27.27;;;19.37;;
9508;SDS011;4792;50.088;8.122;2023-10-19T12:06:07;29.23;;;20.30;;
9508;SDS011;4792;50.088;8.122;2023-10-19T12:08:36;25.83;;;17.23;;
9508;SDS011;4792;50.088;8.122;2023-10-19T12:11:06;23.40;;;15.63;;
9508;SDS011;4792;50.088;8.122;2023-10-19T12:13:42;23.03;;;14.93;;
9508;SDS011;4792;50.088;8.122;2023-10-19T12:16:10;20.17;;;15.20;;
9508;SDS011;4792;50.088;8.122;2023-10-19T12:18:39;22.40;;;15.13;;
9508;SDS011;4792;50.088;8.122;2023-10-19T12:21:08;20.17;;;14.97;;
9508;SDS011;4792;50.088;8.122;2023-10-19T12:23:38;20.67;;;14.33;;
9508;SDS011;4792;50.088;8.122;2023-10-19T12:26:08;16.60;;;13.20;;
9508;SDS011;4792;50.088;8.122;2023-10-19T12:28:38;21.23;;;14.17;;
9508;SDS011;4792;50.088;8.122;2023-10-19T12:31:07;20.57;;;14.47;;
9508;SDS011;4792;50.088;8.122;2023-10-19T12:33:36;18.67;;;14.53;;
9508;SDS011;4792;50.088;8.122;2023-10-19T12:36:04;17.63;;;14.23;;
9508;SDS011;4792;50.088;8.122;2023-10-19T12:38:49;16.97;;;13.37;;
9508;SDS011;4792;50.088;8.122;2023-10-19T12:41:20;20.47;;;14.67;;
9508;SDS011;4792;50.088;8.122;2023-10-19T12:43:48;18.90;;;14.70;;
9508;SDS011;4792;50.088;8.122;2023-10-19T12:46:19;19.73;;;14.47;;
9508;SDS011;4792;50.088;8.122;2023-10-19T12:48:50;21.27;;;15.20;;
9508;SDS011;4792;50.088;8.122;2023-10-19T12:51:18;20.83;;;16.00;;
9508;SDS011;4792;50.088;8.122;2023-10-19T12:53:49;22.47;;;16.63;;
9508;SDS011;4792;50.088;8.122;2023-10-19T12:56:17;23.53;;;17.90;;
9508;SDS011;4792;50.088;8.122;2023-10-19T12:58:46;23.50;;;17.60;;
9508;SDS011;4792;50.088;8.122;2023-10-19T13:01:16;29.47;;;18.83;;
9508;SDS011;4792;50.088;8.122;2023-10-19T13:03:45;21.47;;;17.63;;
9508;SDS011;4792;50.088;8.122;2023-10-19T13:06:16;52.37;;;19.30;;
9508;SDS011;4792;50.088;8.122;2023-10-19T13:08:45;39.07;;;19.87;;
9508;SDS011;4792;50.088;8.122;2023-10-19T13:11:13;24.60;;;18.30;;
9508;SDS011;4792;50.088;8.122;2023-10-19T13:13:45;41.63;;;20.33;;
9508;SDS011;4792;50.088;8.122;2023-10-19T13:16:13;97.60;;;22.80;;
9508;SDS011;4792;50.088;8.122;2023-10-19T13:18:42;23.23;;;20.00;;
9508;SDS011;4792;50.088;8.122;2023-10-19T13:21:10;26.30;;;20.03;;
9508;SDS011;4792;50.088;8.122;2023-10-19T13:23:43;22.03;;;17.50;;
9508;SDS011;4792;50.088;8.122;2023-10-19T13:26:11;24.80;;;20.37;;
9508;SDS011;4792;50.088;8.122;2023-10-19T13:28:46;26.90;;;21.63;;
9508;SDS011;4792;50.088;8.122;2023-10-19T13:31:15;23.20;;;18.90;;
9508;SDS011;4792;50.088;8.122;2023-10-19T13:33:45;28.73;;;20.73;;
9508;SDS011;4792;50.088;8.122;2023-10-19T13:36:14;29.37;;;22.60;;
9508;SDS011;4792;50.088;8.122;2023-10-19T13:38:42;31.63;;;21.80;;
9508;SDS011;4792;50.088;8.122;2023-10-19T13:41:10;27.20;;;20.47;;
9508;SDS011;4792;50.088;8.122;2023-10-19T13:43:38;24.77;;;19.53;;
9508;SDS011;4792;50.088;8.122;2023-10-19T13:46:07;26.97;;;21.63;;
9508;SDS011;4792;50.088;8.122;2023-10-19T13:48:35;27.63;;;20.77;;
9508;SDS011;4792;50.088;8.122;2023-10-19T13:51:05;27.33;;;21.10;;
9508;SDS011;4792;50.088;8.122;2023-10-19T13:53:39;25.87;;;21.07;;
9508;SDS011;4792;50.088;8.122;2023-10-19T13:56:08;28.17;;;21.47;;
9508;SDS011;4792;50.088;8.122;2023-10-19T13:58:36;26.77;;;22.80;;
9508;SDS011;4792;50.088;8.122;2023-10-19T14:01:06;30.17;;;22.07;;
9508;SDS011;4792;50.088;8.122;2023-10-19T14:03:36;31.60;;;25.00;;
9508;SDS011;4792;50.088;8.122;2023-10-19T14:06:05;34.43;;;25.83;;
9508;SDS011;4792;50.088;8.122;2023-10-19T14:08:32;36.00;;;25.60;;
9508;SDS011;4792;50.088;8.122;2023-10-19T14:11:01;37.90;;;27.33;;
9508;SDS011;4792;50.088;8.122;2023-10-19T14:13:29;35.93;;;26.80;;
9508;SDS011;4792;50.088;8.122;2023-10-19T14:15:58;34.60;;;27.10;;
9508;SDS011;4792;50.088;8.122;2023-10-19T14:18:27;37.17;;;29.03;;
9508;SDS011;4792;50.088;8.122;2023-10-19T14:20:55;36.43;;;28.60;;
9508;SDS011;4792;50.088;8.122;2023-10-19T14:23:22;33.57;;;27.33;;
9508;SDS011;4792;50.088;8.122;2023-10-19T14:25:51;34.80;;;27.53;;
9508;SDS011;4792;50.088;8.122;2023-10-19T14:28:19;39.10;;;28.43;;
9508;SDS011;4792;50.088;8.122;2023-10-19T14:30:47;41.13;;;29.30;;
9508;SDS011;4792;50.088;8.122;2023-10-19T14:33:18;46.50;;;30.27;;
9508;SDS011;4792;50.088;8.122;2023-10-19T14:35:47;39.60;;;29.37;;
9508;SDS011;4792;50.088;8.122;2023-10-19T14:38:15;44.97;;;31.60;;
9508;SDS011;4792;50.088;8.122;2023-10-19T14:40:43;46.50;;;30.33;;
9508;SDS011;4792;50.088;8.122;2023-10-19T14:43:14;59.00;;;31.33;;
9508;SDS011;4792;50.088;8.122;2023-10-19T14:45:42;59.37;;;30.33;;
9508;SDS011;4792;50.088;8.122;2023-10-19T14:48:10;71.13;;;33.10;;
9508;SDS011;4792;50.088;8.122;2023-10-19T14:50:38;64.00;;;31.53;;
9508;SDS011;4792;50.088;8.122;2023-10-19T14:53:07;95.13;;;32.37;;
9508;SDS011;4792;50.088;8.122;2023-10-19T14:55:35;161.30;;;34.53;;
9508;SDS011;4792;50.088;8.122;2023-10-19T14:58:03;188.63;;;36.00;;
9508;SDS011;4792;50.088;8.122;2023-10-19T15:00:32;200.27;;;36.37;;